Terminal Aerodrome Forecast
Issued by NWS El Paso, TX

Current Version | Previous Version | Text Only | Print | Product List | Glossary On
Versions: 1 2 3 4 5 6 7 8 9 10 11 12 13 14 15
000
FTUS44 KEPZ 031900 AAA
TAFELP
TAF AMD
KELP 031905Z 0319/0418 17010KT P6SM -SHRA FEW015 SCT025 OVC050
      TEMPO 0319/0322 P6SM -RA SCT015 BKN025 OVC040
     FM032200 21010KT P6SM VCSH FEW020 SCT030 BKN060
     FM040000 24009KT P6SM FEW030 SCT070
     FM041200 24007KT P6SM VCSH SCT030 BKN060=

USA.gov is the U.S. government's official web portal to all federal, state and local government web resources and services.